TimeCST,TemperatureF,Dew PointF,Humidity,Sea Level PressureIn,VisibilityMPH,Wind Direction,Wind SpeedMPH,Gust SpeedMPH,PrecipitationIn,Events,Conditions,WindDirDegrees,DateUTC
12:53 AM,30.0,25.0,82,30.28,10.0,NNE,6.9,-,N/A,,Clear,30,2014-02-24 06:53:00
1:53 AM,30.9,23.0,72,30.29,10.0,NNE,11.5,-,N/A,,Clear,30,2014-02-24 07:53:00
2:53 AM,30.0,21.9,72,30.29,10.0,NE,10.4,-,N/A,,Clear,50,2014-02-24 08:53:00
3:53 AM,28.9,21.0,72,30.29,10.0,NE,10.4,-,N/A,,Clear,40,2014-02-24 09:53:00
4:53 AM,28.0,19.0,69,30.31,10.0,NE,6.9,-,N/A,,Clear,40,2014-02-24 10:53:00
5:53 AM,28.9,17.1,61,30.30,10.0,NE,13.8,-,N/A,,Clear,50,2014-02-24 11:53:00
6:53 AM,28.9,19.0,67,30.36,10.0,NNE,10.4,-,N/A,,Clear,30,2014-02-24 12:53:00
7:53 AM,30.9,19.9,64,30.36,10.0,NE,11.5,-,N/A,,Clear,40,2014-02-24 13:53:00
8:53 AM,34.0,18.0,52,30.35,10.0,ENE,15.0,20.7,N/A,,Clear,60,2014-02-24 14:53:00
9:53 AM,37.0,17.1,44,30.34,10.0,ENE,13.8,-,N/A,,Clear,60,2014-02-24 15:53:00
10:53 AM,39.9,16.0,38,30.34,10.0,ENE,10.4,18.4,N/A,,Clear,70,2014-02-24 16:53:00
11:53 AM,44.1,18.0,35,30.34,10.0,NNE,10.4,-,N/A,,Clear,30,2014-02-24 17:53:00
12:53 PM,44.1,17.1,34,30.32,10.0,NE,10.4,-,N/A,,Clear,50,2014-02-24 18:53:00
1:53 PM,45.0,18.0,34,30.28,10.0,NE,8.1,-,N/A,,Clear,50,2014-02-24 19:53:00
2:53 PM,46.0,18.0,33,30.24,10.0,NE,10.4,-,N/A,,Clear,50,2014-02-24 20:53:00
3:53 PM,46.0,19.0,34,30.22,10.0,NE,10.4,-,N/A,,Clear,50,2014-02-24 21:53:00
4:53 PM,46.0,18.0,33,30.21,10.0,ENE,12.7,-,N/A,,Clear,60,2014-02-24 22:53:00
5:53 PM,41.0,19.9,43,30.20,10.0,ENE,5.8,-,N/A,,Clear,60,2014-02-24 23:53:00
6:53 PM,42.1,23.0,47,30.19,10.0,ENE,5.8,-,N/A,,Overcast,60,2014-02-25 00:53:00
7:53 PM,41.0,27.0,57,30.19,10.0,North,5.8,-,N/A,,Overcast,10,2014-02-25 01:53:00
8:53 PM,41.0,26.1,55,30.18,10.0,NNE,6.9,-,N/A,,Overcast,30,2014-02-25 02:53:00
9:53 PM,41.0,24.1,51,30.18,10.0,NE,6.9,-,N/A,,Overcast,50,2014-02-25 03:53:00
10:53 PM,41.0,21.0,45,30.18,10.0,ENE,8.1,-,N/A,,Overcast,60,2014-02-25 04:53:00
11:53 PM,39.9,24.1,53,30.18,10.0,NNE,9.2,-,0.00,,Overcast,30,2014-02-25 05:53:00